createdAt,value
2018-12-08T00:00:17.419Z,61.78
2018-12-08T00:05:20.722Z,62.25
2018-12-08T00:10:23.998Z,60.99
2018-12-08T00:15:26.261Z,62.56
2018-12-08T00:20:28.391Z,62.77
2018-12-08T00:25:30.638Z,63.38
2018-12-08T00:30:44.894Z,65.22
2018-12-08T00:35:47.101Z,66.14
2018-12-08T00:40:56.500Z,66.19
2018-12-08T00:45:58.659Z,66.30
2018-12-08T00:51:00.734Z,66.51
2018-12-08T00:56:02.970Z,66.88
2018-12-08T01:01:05.242Z,64.84
2018-12-08T01:06:07.494Z,63.99
2018-12-08T01:11:16.708Z,65.03
2018-12-08T01:16:18.869Z,65.15
2018-12-08T01:21:21.026Z,65.82
2018-12-08T01:26:23.582Z,65.86
2018-12-08T01:31:25.967Z,67.20
2018-12-08T01:36:28.149Z,66.06
2018-12-08T01:41:30.445Z,66.76
2018-12-08T01:46:32.628Z,67.55
2018-12-08T01:51:34.802Z,68.27
2018-12-08T01:56:37.146Z,69.40
2018-12-08T02:01:39.298Z,69.05
2018-12-08T02:06:41.389Z,70.60
2018-12-08T02:11:43.462Z,70.65
2018-12-08T02:16:45.497Z,71.31
2018-12-08T02:21:47.870Z,72.36
2018-12-08T02:26:50.161Z,72.96
2018-12-08T02:31:52.427Z,73.48
2018-12-08T02:36:54.516Z,73.62
2018-12-08T02:41:57.037Z,73.39
2018-12-08T02:46:59.181Z,72.99
2018-12-08T02:52:01.233Z,72.25
2018-12-08T02:57:03.443Z,71.65
2018-12-08T03:02:12.692Z,71.11
2018-12-08T03:07:14.886Z,71.19
2018-12-08T03:12:17.722Z,70.78
2018-12-08T03:17:20.857Z,69.50
2018-12-08T03:22:22.909Z,69.69
2018-12-08T03:27:25.282Z,69.79
2018-12-08T03:32:27.572Z,69.88
2018-12-08T03:37:29.734Z,69.97
2018-12-08T03:42:32.021Z,69.74
2018-12-08T03:47:34.118Z,69.60
2018-12-08T03:52:36.306Z,70.31
2018-12-08T03:57:38.505Z,69.36
2018-12-08T04:02:40.697Z,69.34
2018-12-08T04:07:43.173Z,69.54
2018-12-08T04:12:45.489Z,69.45
2018-12-08T04:17:47.520Z,69.60
2018-12-08T04:22:49.581Z,70.21
2018-12-08T04:27:52.085Z,70.17
2018-12-08T04:32:54.145Z,70.85
2018-12-08T04:38:03.141Z,70.65
2018-12-08T04:43:07.334Z,71.14
2018-12-08T04:48:09.582Z,70.78
2018-12-08T04:53:12.410Z,69.96
2018-12-08T04:58:14.533Z,69.77
2018-12-08T05:03:16.761Z,70.51
2018-12-08T05:08:19.101Z,69.21
2018-12-08T05:13:22.149Z,69.13
2018-12-08T05:18:24.301Z,68.96
2018-12-08T05:23:26.352Z,68.69
2018-12-08T05:28:29.260Z,67.91
2018-12-08T05:33:31.429Z,67.86
2018-12-08T05:38:33.593Z,68.57
2018-12-08T05:43:35.917Z,69.17
2018-12-08T05:48:37.967Z,69.45
2018-12-08T05:53:40.021Z,69.29
2018-12-08T05:58:42.213Z,70.05
2018-12-08T06:03:44.470Z,70.34
2018-12-08T06:08:46.542Z,71.19
2018-12-08T06:13:48.761Z,71.66
2018-12-08T06:18:51.084Z,71.04
2018-12-08T06:23:53.387Z,69.28
2018-12-08T06:28:55.701Z,69.08
2018-12-08T06:33:57.991Z,69.54
2018-12-08T06:39:00.282Z,70.12
2018-12-08T06:44:02.752Z,69.07
2018-12-08T06:49:04.935Z,68.81
2018-12-08T06:54:07.126Z,68.79
2018-12-08T06:59:09.648Z,68.64
2018-12-08T07:04:11.829Z,68.75
2018-12-08T07:09:13.918Z,68.75
2018-12-08T07:14:17.139Z,68.31
2018-12-08T07:19:19.285Z,68.59
2018-12-08T07:24:21.352Z,68.63
2018-12-08T07:29:23.401Z,67.97
2018-12-08T07:34:25.707Z,67.87
2018-12-08T07:39:28.901Z,67.00
2018-12-08T07:44:30.993Z,65.91
2018-12-08T07:49:33.045Z,66.12
2018-12-08T07:54:35.225Z,64.90
2018-12-08T07:59:37.617Z,64.36
2018-12-08T08:04:39.909Z,63.55
2018-12-08T08:09:42.005Z,62.48
2018-12-08T08:14:44.077Z,62.38
2018-12-08T08:19:46.366Z,62.31
2018-12-08T08:24:48.553Z,63.07
2018-12-08T08:29:51.047Z,63.05
2018-12-08T08:34:56.167Z,62.58
2018-12-08T08:39:58.625Z,62.97
2018-12-08T08:45:00.777Z,62.98
2018-12-08T08:50:05.108Z,62.74
2018-12-08T08:55:07.733Z,62.84
2018-12-08T09:00:10.357Z,62.52
2018-12-08T09:05:12.933Z,62.23
2018-12-08T09:10:15.302Z,62.35
2018-12-08T09:15:17.571Z,63.12
2018-12-08T09:20:19.731Z,62.03
2018-12-08T09:25:22.575Z,62.86
2018-12-08T09:30:24.777Z,63.03
2018-12-08T09:35:26.836Z,62.66
2018-12-08T09:40:28.906Z,62.99
2018-12-08T09:45:31.358Z,63.67
2018-12-08T09:50:33.666Z,62.44
2018-12-08T09:55:35.747Z,62.81
2018-12-08T10:00:38.977Z,62.53
2018-12-08T10:05:41.150Z,63.65
2018-12-08T10:10:43.281Z,61.77
2018-12-08T10:15:45.609Z,62.72
2018-12-08T10:20:47.693Z,62.23
2018-12-08T10:25:49.798Z,62.04
2018-12-08T10:30:58.986Z,62.16
2018-12-08T10:36:01.173Z,62.25
2018-12-08T10:41:03.485Z,62.12
2018-12-08T10:46:05.678Z,60.93
2018-12-08T10:51:08.014Z,61.87
2018-12-08T10:56:13.038Z,61.89
2018-12-08T11:01:20.786Z,61.91
2018-12-08T11:06:23.101Z,61.72
2018-12-08T11:11:25.613Z,59.14
2018-12-08T11:16:27.895Z,58.41
2018-12-08T11:21:30.129Z,59.58
2018-12-08T11:26:32.341Z,59.54
2018-12-08T11:31:34.532Z,59.43
2018-12-08T11:36:36.721Z,59.36
2018-12-08T11:41:39.791Z,57.58
2018-12-08T11:46:42.601Z,57.71
2018-12-08T11:51:47.589Z,57.64
2018-12-08T11:56:49.870Z,59.34
2018-12-08T12:01:52.343Z,59.47
2018-12-08T12:06:55.063Z,59.75
2018-12-08T12:11:57.582Z,58.39
2018-12-08T12:16:59.813Z,57.08
2018-12-08T12:22:02.005Z,58.18
2018-12-08T12:27:04.284Z,59.57
2018-12-08T12:32:09.770Z,61.07
2018-12-08T12:37:12.057Z,60.61
2018-12-08T12:42:14.241Z,61.45
2018-12-08T12:47:16.461Z,61.66
2018-12-08T12:52:18.533Z,61.72
2018-12-08T12:57:20.709Z,61.78
2018-12-08T13:02:22.895Z,61.92
2018-12-08T13:07:25.083Z,62.28
2018-12-08T13:12:27.201Z,62.62
2018-12-08T13:17:29.447Z,61.59
2018-12-08T13:22:31.626Z,62.16
2018-12-08T13:27:33.681Z,61.46
2018-12-08T13:32:35.753Z,62.51
2018-12-08T13:37:37.817Z,65.53
2018-12-08T13:42:39.982Z,65.81
2018-12-08T13:47:42.709Z,66.67
2018-12-08T13:52:44.874Z,66.92
2018-12-08T13:57:47.076Z,66.73
2018-12-08T14:02:49.437Z,66.76
2018-12-08T14:07:51.517Z,66.85
2018-12-08T14:12:53.682Z,66.91
2018-12-08T14:17:56.081Z,66.10
2018-12-08T14:22:58.241Z,66.00
2018-12-08T14:33:36.133Z,66.41
2018-12-08T14:38:38.330Z,66.43
2018-12-08T14:43:40.608Z,66.22
2018-12-08T14:48:42.788Z,65.95
2018-12-08T14:53:45.257Z,66.40
2018-12-08T14:58:47.638Z,65.98
2018-12-08T15:03:49.954Z,65.97
2018-12-08T15:08:52.042Z,65.75
2018-12-08T15:13:54.214Z,66.46
2018-12-08T15:18:56.497Z,67.34
2018-12-08T15:23:58.557Z,67.46
2018-12-08T15:29:00.723Z,67.47
2018-12-08T15:34:03.430Z,66.53
2018-12-08T15:39:06.498Z,67.54
2018-12-08T15:44:10.200Z,67.60
2018-12-08T15:49:14.404Z,67.44
2018-12-08T15:54:16.689Z,67.45
2018-12-08T15:59:18.981Z,67.85
2018-12-08T16:04:21.185Z,67.40
2018-12-08T16:09:23.483Z,67.87
2018-12-08T16:14:25.573Z,68.28
2018-12-08T16:19:27.980Z,68.93
2018-12-08T16:24:30.066Z,70.11
2018-12-08T16:29:32.833Z,70.56
2018-12-08T16:34:35.145Z,70.95
2018-12-08T16:39:37.815Z,70.50
2018-12-08T16:44:40.130Z,69.61
2018-12-08T16:49:42.341Z,69.01
2018-12-08T16:54:44.877Z,68.81
2018-12-08T16:59:47.121Z,67.76
2018-12-08T17:04:49.313Z,67.48
2018-12-08T17:09:51.562Z,66.94
2018-12-08T17:14:53.854Z,66.35
2018-12-08T17:19:56.138Z,65.51
2018-12-08T17:24:58.198Z,65.57
2018-12-08T17:30:00.506Z,65.19
2018-12-08T17:35:03.071Z,65.12
2018-12-08T17:40:07.035Z,65.36
2018-12-08T17:45:09.329Z,64.91
2018-12-08T17:50:11.609Z,65.18
2018-12-08T17:55:13.905Z,64.23
2018-12-08T18:00:16.384Z,65.58
2018-12-08T18:05:18.669Z,65.49
2018-12-08T18:10:21.233Z,66.43
2018-12-08T18:15:23.517Z,67.38
2018-12-08T18:20:25.561Z,67.15
2018-12-08T18:25:27.668Z,67.37
2018-12-08T18:30:29.845Z,66.78
2018-12-08T18:35:32.126Z,67.23
2018-12-08T18:40:34.303Z,67.54
2018-12-08T18:45:36.470Z,68.00
2018-12-08T18:50:38.632Z,68.48
2018-12-08T18:55:40.821Z,68.29
2018-12-08T19:00:43.185Z,67.42
2018-12-08T19:05:45.465Z,68.58
2018-12-08T19:10:47.669Z,68.78
2018-12-08T19:15:49.998Z,68.95
2018-12-08T19:20:52.261Z,68.84
2018-12-08T19:25:54.457Z,68.59
2018-12-08T19:30:56.672Z,68.36
2018-12-08T19:36:05.812Z,68.72
2018-12-08T19:41:07.989Z,68.61
2018-12-08T19:46:10.289Z,69.22
2018-12-08T19:51:12.575Z,69.04
2018-12-08T19:56:14.673Z,69.76
2018-12-08T20:01:17.774Z,69.62
2018-12-08T20:06:20.141Z,69.84
2018-12-08T20:11:22.349Z,68.87
2018-12-08T20:16:24.514Z,69.77
2018-12-08T20:21:26.785Z,68.77
2018-12-08T20:26:29.137Z,69.44
2018-12-08T20:31:31.317Z,69.78
2018-12-08T20:36:33.593Z,69.86
2018-12-08T20:41:35.834Z,69.70
2018-12-08T20:46:38.154Z,69.21
2018-12-08T20:51:40.473Z,68.40
2018-12-08T20:56:43.436Z,67.59
2018-12-08T21:01:45.610Z,67.34
2018-12-08T21:06:49.078Z,67.09
2018-12-08T21:11:52.161Z,68.43
2018-12-08T21:16:54.321Z,68.81
2018-12-08T21:21:56.482Z,68.71
2018-12-08T21:26:58.911Z,67.68
2018-12-08T21:32:01.093Z,66.11
2018-12-08T21:37:03.389Z,65.89
2018-12-08T21:42:05.613Z,64.96
2018-12-08T21:47:07.776Z,65.38
2018-12-08T21:52:10.574Z,65.24
2018-12-08T21:57:12.858Z,65.35
2018-12-08T22:02:15.106Z,65.94
2018-12-08T22:07:17.355Z,66.33
2018-12-08T22:12:19.541Z,65.70
2018-12-08T22:17:21.825Z,66.45
2018-12-08T22:22:24.013Z,66.29
2018-12-08T22:27:26.165Z,65.82
2018-12-08T22:32:28.334Z,66.52
2018-12-08T22:37:30.403Z,66.54
2018-12-08T22:42:32.458Z,67.11
2018-12-08T22:47:34.514Z,67.21
2018-12-08T22:52:36.934Z,67.35
2018-12-08T22:57:39.552Z,67.66
2018-12-08T23:02:42.034Z,67.41
2018-12-08T23:07:44.334Z,67.59
2018-12-08T23:12:46.406Z,68.73
2018-12-08T23:17:48.940Z,72.26
2018-12-08T23:22:52.016Z,74.01
2018-12-08T23:27:54.301Z,74.99
2018-12-08T23:32:56.473Z,75.42
2018-12-08T23:37:58.765Z,76.35
2018-12-08T23:43:00.930Z,48.75
2018-12-08T23:48:03.202Z,66.33
2018-12-08T23:53:05.479Z,79.61
2018-12-08T23:58:07.643Z,81.23
